createdAt,value
2023-03-27T00:00:37.853Z,98384.54
2023-03-27T00:03:27.984Z,98387.83
2023-03-27T00:06:16.444Z,98387.16
2023-03-27T00:09:04.537Z,98385.40
2023-03-27T00:11:51.766Z,98384.67
2023-03-27T00:14:38.025Z,98386.17
2023-03-27T00:17:24.803Z,98386.77
2023-03-27T00:20:11.158Z,98390.20
2023-03-27T00:22:57.906Z,98391.23
2023-03-27T00:25:45.850Z,98391.65
2023-03-27T00:28:32.389Z,98391.61
2023-03-27T00:31:18.980Z,98394.98
2023-03-27T00:34:06.015Z,98390.84
2023-03-27T00:36:53.229Z,98386.34
2023-03-27T00:39:41.288Z,98386.61
2023-03-27T00:42:28.008Z,98384.27
2023-03-27T00:45:19.365Z,98381.65
2023-03-27T00:48:08.263Z,98377.14
2023-03-27T00:50:56.915Z,98376.36
2023-03-27T00:53:45.475Z,98373.82
2023-03-27T00:56:33.268Z,98370.79
2023-03-27T00:59:22.902Z,98364.98
2023-03-27T01:02:10.639Z,98360.83
2023-03-27T01:04:58.236Z,98357.52
2023-03-27T01:08:00.637Z,98363.59
2023-03-27T01:11:19.614Z,98362.51
2023-03-27T01:14:43.436Z,98358.89
2023-03-27T01:18:06.484Z,98352.73
2023-03-27T01:21:14.020Z,98351.81
2023-03-27T01:24:44.896Z,98353.16
2023-03-27T01:27:58.023Z,98353.92
2023-03-27T01:31:16.928Z,98360.23
2023-03-27T01:34:14.350Z,98366.42
2023-03-27T01:37:31.621Z,98372.40
2023-03-27T01:40:32.088Z,98377.15
2023-03-27T01:43:36.263Z,98382.26
2023-03-27T01:46:41.142Z,98388.05
2023-03-27T01:49:39.327Z,98392.27
2023-03-27T01:52:32.986Z,98393.39
2023-03-27T01:55:25.401Z,98398.40
2023-03-27T01:58:28.746Z,98398.02
2023-03-27T02:01:21.788Z,98400.39
2023-03-27T02:04:23.562Z,98397.98
2023-03-27T02:07:18.147Z,98399.23
2023-03-27T02:10:14.789Z,98404.55
2023-03-27T02:13:09.138Z,98411.66
2023-03-27T02:15:59.476Z,98417.92
2023-03-27T02:19:01.173Z,98423.33
2023-03-27T02:21:47.818Z,98435.20
2023-03-27T02:24:34.829Z,98437.63
2023-03-27T02:27:42.935Z,98442.55
2023-03-27T02:31:06.215Z,98439.81
2023-03-27T02:34:31.416Z,98443.76
2023-03-27T02:37:54.770Z,98443.98
2023-03-27T02:41:13.712Z,98444.28
2023-03-27T02:44:11.336Z,98452.41
2023-03-27T02:47:39.229Z,98458.13
2023-03-27T02:50:33.759Z,98458.16
2023-03-27T02:53:29.897Z,98465.30
2023-03-27T02:56:21.755Z,98472.54
2023-03-27T02:59:38.882Z,98475.05
2023-03-27T03:02:32.396Z,98472.60
2023-03-27T03:05:22.566Z,98480.15
2023-03-27T03:08:09.682Z,98489.65
2023-03-27T03:11:04.135Z,98492.05
2023-03-27T03:13:50.575Z,98501.58
2023-03-27T03:16:37.191Z,98506.98
2023-03-27T03:19:26.002Z,98508.38
2023-03-27T03:22:15.351Z,98508.21
2023-03-27T03:25:01.983Z,98511.19
2023-03-27T03:27:48.745Z,98513.14
2023-03-27T03:30:41.385Z,98514.80
2023-03-27T03:33:30.396Z,98520.56
2023-03-27T03:36:17.070Z,98523.83
2023-03-27T03:39:05.177Z,98525.69
2023-03-27T03:41:52.412Z,98525.51
2023-03-27T03:44:39.202Z,98530.52
2023-03-27T03:47:38.865Z,98534.18
2023-03-27T03:50:25.699Z,98537.94
2023-03-27T03:53:13.923Z,98533.14
2023-03-27T03:56:00.929Z,98533.23
2023-03-27T03:58:47.737Z,98536.05
2023-03-27T04:01:35.051Z,98541.09
2023-03-27T04:04:23.163Z,98544.09
2023-03-27T04:07:30.991Z,98540.14
2023-03-27T04:10:31.514Z,98541.15
2023-03-27T04:13:19.365Z,98538.97
2023-03-27T04:16:20.703Z,98539.71
2023-03-27T04:19:10.033Z,98534.55
2023-03-27T04:22:01.522Z,98540.63
2023-03-27T04:24:51.114Z,98536.98
2023-03-27T04:27:38.586Z,98539.08
2023-03-27T04:30:36.321Z,98545.27
2023-03-27T04:33:45.828Z,98554.94
2023-03-27T04:37:01.829Z,98558.54
2023-03-27T04:39:49.216Z,98559.48
2023-03-27T04:42:43.519Z,98560.22
2023-03-27T04:45:31.768Z,98558.92
2023-03-27T04:48:18.632Z,98566.85
2023-03-27T04:51:08.825Z,98570.20
2023-03-27T04:53:55.976Z,98571.02
2023-03-27T04:56:45.032Z,98568.63
2023-03-27T04:59:31.501Z,98568.44
2023-03-27T05:02:36.391Z,98571.02
2023-03-27T05:05:30.745Z,98568.15
2023-03-27T05:08:18.427Z,98563.54
2023-03-27T05:11:04.831Z,98559.34
2023-03-27T05:14:00.636Z,98559.80
2023-03-27T05:16:51.843Z,98562.07
2023-03-27T05:19:38.697Z,98565.73
2023-03-27T05:22:26.932Z,98568.05
2023-03-27T05:25:21.991Z,98578.73
2023-03-27T05:28:08.836Z,98578.56
2023-03-27T05:30:56.637Z,98586.20
2023-03-27T05:33:44.329Z,98590.97
2023-03-27T05:36:31.546Z,98599.72
2023-03-27T05:39:19.643Z,98603.08
2023-03-27T05:42:07.080Z,98604.70
2023-03-27T05:44:55.608Z,98603.48
2023-03-27T05:47:53.580Z,98604.42
2023-03-27T05:50:41.580Z,98603.71
2023-03-27T05:53:38.834Z,98608.36
2023-03-27T05:56:37.429Z,98615.34
2023-03-27T05:59:24.415Z,98620.05
2023-03-27T06:02:19.196Z,98621.92
2023-03-27T06:05:13.798Z,98623.09
2023-03-27T06:08:01.785Z,98621.70
2023-03-27T06:10:48.598Z,98630.19
2023-03-27T06:13:42.798Z,98634.42
2023-03-27T06:16:31.289Z,98637.08
2023-03-27T06:19:32.837Z,98643.27
2023-03-27T06:22:19.717Z,98646.54
2023-03-27T06:25:08.417Z,98651.38
2023-03-27T06:27:55.296Z,98656.65
2023-03-27T06:30:42.383Z,98662.33
2023-03-27T06:33:46.434Z,98663.36
2023-03-27T06:37:04.713Z,98670.69
2023-03-27T06:39:57.063Z,98672.54
2023-03-27T06:43:05.318Z,98675.09
2023-03-27T06:45:57.586Z,98683.02
2023-03-27T06:49:03.370Z,98686.37
2023-03-27T06:51:50.339Z,98694.39
2023-03-27T06:54:39.943Z,98701.80
2023-03-27T06:57:26.793Z,98704.17
2023-03-27T07:00:23.871Z,98705.27
2023-03-27T07:03:33.770Z,98707.39
2023-03-27T07:06:50.038Z,98714.41
2023-03-27T07:09:39.707Z,98721.28
2023-03-27T07:12:27.526Z,98724.44
2023-03-27T07:15:15.745Z,98729.59
2023-03-27T07:18:05.947Z,98735.64
2023-03-27T07:20:52.880Z,98739.11
2023-03-27T07:23:41.816Z,98741.45
2023-03-27T07:26:32.837Z,98746.41
2023-03-27T07:29:21.133Z,98754.43
2023-03-27T07:32:12.241Z,98761.22
2023-03-27T07:35:06.127Z,98767.36
2023-03-27T07:38:11.744Z,98767.55
2023-03-27T07:41:06.130Z,98771.85
2023-03-27T07:44:19.531Z,98775.58
2023-03-27T07:47:15.067Z,98776.36
2023-03-27T07:50:02.513Z,98779.10
2023-03-27T07:52:49.848Z,98786.85
2023-03-27T07:55:37.205Z,98792.05
2023-03-27T07:58:27.401Z,98800.13
2023-03-27T08:01:14.837Z,98802.00
2023-03-27T08:04:03.267Z,98809.88
2023-03-27T08:06:51.141Z,98823.40
2023-03-27T08:09:39.735Z,98831.94
2023-03-27T08:12:26.425Z,98828.84
2023-03-27T08:15:18.170Z,98831.48
2023-03-27T08:18:06.268Z,98836.92
2023-03-27T08:20:59.460Z,98844.18
2023-03-27T08:23:47.040Z,98846.52
2023-03-27T08:26:51.717Z,98854.48
2023-03-27T08:29:39.537Z,98853.85
2023-03-27T08:32:27.305Z,98846.69
2023-03-27T08:35:14.064Z,98849.92
2023-03-27T08:38:00.745Z,98850.98
2023-03-27T08:41:17.173Z,98851.95
2023-03-27T08:44:17.955Z,98851.88
2023-03-27T08:47:18.658Z,98857.02
2023-03-27T08:50:35.684Z,98859.96
2023-03-27T08:54:03.120Z,98868.41
2023-03-27T08:56:50.935Z,98868.36
2023-03-27T08:59:38.262Z,98864.71
2023-03-27T09:02:50.900Z,98861.50
2023-03-27T09:06:07.998Z,98865.55
2023-03-27T09:09:23.249Z,98869.38
2023-03-27T09:13:11.443Z,98872.15
2023-03-27T09:16:25.637Z,98871.38
2023-03-27T09:19:21.027Z,98870.27
2023-03-27T09:22:22.837Z,98866.00
2023-03-27T09:25:52.945Z,98868.46
2023-03-27T09:29:00.995Z,98869.73
2023-03-27T09:31:56.925Z,98872.27
2023-03-27T09:34:45.475Z,98876.41
2023-03-27T09:37:37.203Z,98883.00
2023-03-27T09:40:52.673Z,98891.18
2023-03-27T09:43:53.304Z,98904.02
2023-03-27T09:46:47.357Z,98909.29
2023-03-27T09:49:35.306Z,98912.48
2023-03-27T09:52:37.721Z,98915.25
2023-03-27T09:55:55.078Z,98917.60
2023-03-27T09:58:48.430Z,98916.77
2023-03-27T10:01:35.483Z,98917.83
2023-03-27T10:04:28.594Z,98913.40
2023-03-27T10:07:26.263Z,98912.95
2023-03-27T10:10:37.237Z,98910.90
2023-03-27T10:13:28.848Z,98926.27
2023-03-27T10:16:19.752Z,98939.84
2023-03-27T10:19:30.220Z,98942.33
2023-03-27T10:22:35.957Z,98956.69
2023-03-27T10:25:33.640Z,98972.16
2023-03-27T10:28:46.140Z,98975.53
2023-03-27T10:31:49.317Z,98980.30
2023-03-27T10:34:57.654Z,98978.88
2023-03-27T10:38:15.006Z,98985.80
2023-03-27T10:41:37.559Z,98984.60
2023-03-27T10:44:27.766Z,98986.38
2023-03-27T10:47:25.738Z,98982.09
2023-03-27T10:50:33.126Z,98987.62
2023-03-27T10:53:42.958Z,98994.55
2023-03-27T10:56:52.588Z,99008.09
2023-03-27T11:00:06.755Z,99025.37
2023-03-27T11:03:22.456Z,99038.63
2023-03-27T11:06:18.291Z,99045.56
2023-03-27T11:09:18.589Z,99050.03
2023-03-27T11:12:18.933Z,99052.39
2023-03-27T11:15:41.730Z,99057.87
2023-03-27T11:19:10.702Z,99057.06
2023-03-27T11:22:28.284Z,99050.65
2023-03-27T11:25:51.268Z,99064.23
2023-03-27T11:28:49.102Z,99060.14
2023-03-27T11:31:48.769Z,99067.60
2023-03-27T11:35:04.203Z,99075.60
2023-03-27T11:38:20.996Z,99085.02
2023-03-27T11:41:14.644Z,99085.14
2023-03-27T11:44:01.967Z,99087.61
2023-03-27T11:48:12.340Z,99091.17
2023-03-27T11:51:21.940Z,99099.91
2023-03-27T11:54:29.993Z,99101.23
2023-03-27T11:57:26.463Z,99107.35
2023-03-27T12:00:31.299Z,99109.55
2023-03-27T12:04:13.618Z,99116.58
2023-03-27T12:07:36.146Z,99112.98
2023-03-27T12:10:38.210Z,99115.54
2023-03-27T12:14:40.424Z,99104.08
2023-03-27T12:17:57.583Z,99112.98
2023-03-27T12:21:19.807Z,99111.36
2023-03-27T12:24:59.632Z,99117.21
2023-03-27T12:28:22.768Z,99124.07
2023-03-27T12:31:59.774Z,99122.73
2023-03-27T12:34:56.639Z,99128.20
2023-03-27T12:37:58.230Z,99133.83
2023-03-27T12:41:00.333Z,99136.23
2023-03-27T12:43:54.660Z,99144.90
2023-03-27T12:47:22.171Z,99141.34
2023-03-27T12:50:25.792Z,99144.25
2023-03-27T12:53:32.784Z,99150.69
2023-03-27T12:56:33.771Z,99151.09
2023-03-27T12:59:27.587Z,99161.29
2023-03-27T13:02:15.438Z,99163.73
2023-03-27T13:05:32.079Z,99168.63
2023-03-27T13:08:44.561Z,99167.67
2023-03-27T13:12:36.098Z,99183.08
2023-03-27T13:15:36.555Z,99186.74
2023-03-27T13:19:06.693Z,99184.95
2023-03-27T13:22:18.275Z,99192.64
2023-03-27T13:25:45.368Z,99194.69
2023-03-27T13:28:41.738Z,99201.78
2023-03-27T13:31:46.078Z,99206.78
2023-03-27T13:35:23.510Z,99213.95
2023-03-27T13:38:12.942Z,99214.45
2023-03-27T13:41:44.268Z,99214.64
2023-03-27T13:45:14.758Z,99206.76
2023-03-27T13:48:13.346Z,99215.90
2023-03-27T13:51:34.277Z,99224.63
2023-03-27T13:54:39.812Z,99224.73
2023-03-27T13:57:55.875Z,99221.16
2023-03-27T14:01:08.916Z,99230.58
2023-03-27T14:04:35.200Z,99228.34
2023-03-27T14:07:51.930Z,99232.09
2023-03-27T14:11:03.920Z,99237.33
2023-03-27T14:14:32.001Z,99234.35
2023-03-27T14:17:21.925Z,99235.77
2023-03-27T14:20:18.501Z,99238.86
2023-03-27T14:23:14.564Z,99242.02
2023-03-27T14:26:29.111Z,99250.64
2023-03-27T14:29:16.370Z,99250.38
2023-03-27T14:32:15.307Z,99254.17
2023-03-27T14:35:24.799Z,99252.14
2023-03-27T14:38:30.897Z,99253.09
2023-03-27T14:41:21.635Z,99255.45
2023-03-27T14:44:19.137Z,99267.27
2023-03-27T14:47:13.163Z,99268.64
2023-03-27T14:50:01.241Z,99274.48
2023-03-27T14:52:59.611Z,99273.14
2023-03-27T14:55:52.370Z,99275.36
2023-03-27T14:59:28.259Z,99279.69
2023-03-27T15:02:31.248Z,99285.30
2023-03-27T15:05:22.061Z,99294.88
2023-03-27T15:08:12.374Z,99294.89
2023-03-27T15:11:32.827Z,99299.29
2023-03-27T15:14:29.825Z,99304.11
2023-03-27T15:17:19.680Z,99309.70
2023-03-27T15:20:10.476Z,99312.81
2023-03-27T15:23:11.979Z,99311.49
2023-03-27T15:26:08.922Z,99312.34
2023-03-27T15:29:03.565Z,99315.09
2023-03-27T15:31:51.718Z,99317.67
2023-03-27T15:34:47.817Z,99322.60
2023-03-27T15:37:34.702Z,99327.05
2023-03-27T15:40:31.190Z,99328.10
2023-03-27T15:43:24.315Z,99336.62
2023-03-27T15:46:20.934Z,99334.23
2023-03-27T15:49:31.973Z,99338.95
2023-03-27T15:52:32.325Z,99349.16
2023-03-27T15:55:37.377Z,99353.86
2023-03-27T15:58:28.400Z,99353.20
2023-03-27T16:01:38.348Z,99356.34
2023-03-27T16:04:45.556Z,99360.17
2023-03-27T16:07:45.509Z,99368.41
2023-03-27T16:10:33.371Z,99369.06
2023-03-27T16:13:34.734Z,99378.52
2023-03-27T16:16:38.128Z,99380.83
2023-03-27T16:19:24.805Z,99380.33
2023-03-27T16:22:12.667Z,99381.45
2023-03-27T16:25:00.988Z,99388.54
2023-03-27T16:27:54.083Z,99397.65
2023-03-27T16:30:41.442Z,99402.98
2023-03-27T16:33:28.934Z,99405.13
2023-03-27T16:36:20.128Z,99406.39
2023-03-27T16:39:08.685Z,99409.18
2023-03-27T16:41:55.813Z,99410.73
2023-03-27T16:44:44.468Z,99414.14
2023-03-27T16:47:31.508Z,99415.81
2023-03-27T16:50:22.904Z,99413.41
2023-03-27T16:53:13.443Z,99418.27
2023-03-27T16:56:00.473Z,99415.74
2023-03-27T16:58:48.570Z,99417.21
2023-03-27T17:01:35.410Z,99421.86
2023-03-27T17:04:22.821Z,99424.14
2023-03-27T17:07:10.093Z,99420.48
2023-03-27T17:09:56.910Z,99421.11
2023-03-27T17:12:44.140Z,99424.35
2023-03-27T17:15:35.562Z,99430.04
2023-03-27T17:18:25.405Z,99433.97
2023-03-27T17:21:11.814Z,99433.95
2023-03-27T17:24:01.520Z,99435.60
2023-03-27T17:26:48.264Z,99433.92
2023-03-27T17:29:34.574Z,99435.66
2023-03-27T17:32:21.122Z,99436.51
2023-03-27T17:35:08.717Z,99437.25
2023-03-27T17:37:56.392Z,99439.04
2023-03-27T17:40:43.041Z,99440.46
2023-03-27T17:43:29.926Z,99439.73
2023-03-27T17:46:16.178Z,99443.91
2023-03-27T17:49:03.169Z,99444.25
2023-03-27T17:51:50.088Z,99445.63
2023-03-27T17:54:37.240Z,99448.09
2023-03-27T17:57:23.818Z,99452.20
2023-03-27T18:00:11.100Z,99452.19
2023-03-27T18:03:03.179Z,99451.64
2023-03-27T18:05:51.612Z,99453.52
2023-03-27T18:08:38.663Z,99455.17
2023-03-27T18:11:25.456Z,99458.58
2023-03-27T18:14:12.731Z,99454.73
2023-03-27T18:16:59.435Z,99450.89
2023-03-27T18:19:49.702Z,99452.39
2023-03-27T18:22:38.493Z,99446.78
2023-03-27T18:25:25.197Z,99447.38
2023-03-27T18:28:12.650Z,99448.33
2023-03-27T18:31:07.705Z,99447.75
2023-03-27T18:33:54.678Z,99447.85
2023-03-27T18:36:41.961Z,99449.70
2023-03-27T18:39:28.504Z,99448.55
2023-03-27T18:42:15.041Z,99447.10
2023-03-27T18:45:02.484Z,99449.95
2023-03-27T18:47:49.175Z,99447.44
2023-03-27T18:50:35.778Z,99444.05
2023-03-27T18:53:23.135Z,99444.46
2023-03-27T18:56:09.866Z,99442.81
2023-03-27T18:58:56.512Z,99436.98
2023-03-27T19:01:43.558Z,99433.87
2023-03-27T19:04:31.159Z,99431.11
2023-03-27T19:07:21.549Z,99431.34
2023-03-27T19:10:09.864Z,99434.51
2023-03-27T19:12:56.806Z,99432.66
2023-03-27T19:16:02.387Z,99426.36
2023-03-27T19:19:37.731Z,99428.46
2023-03-27T19:22:40.854Z,99428.22
2023-03-27T19:26:10.065Z,99427.51
2023-03-27T19:29:00.510Z,99430.52
2023-03-27T19:31:47.742Z,99429.20
2023-03-27T19:34:42.319Z,99423.89
2023-03-27T19:37:30.789Z,99420.48
2023-03-27T19:40:19.933Z,99413.94
2023-03-27T19:43:06.791Z,99411.38
2023-03-27T19:46:04.390Z,99402.55
2023-03-27T19:49:04.450Z,99400.50
2023-03-27T19:52:20.772Z,99395.84
2023-03-27T19:55:08.990Z,99391.30
2023-03-27T20:01:37.151Z,99389.69
2023-03-27T20:04:23.859Z,99394.33
2023-03-27T20:07:10.596Z,99398.47
2023-03-27T20:09:57.135Z,99392.50
2023-03-27T20:12:43.955Z,99386.59
2023-03-27T20:15:30.531Z,99391.04
2023-03-27T20:18:19.433Z,99389.84
2023-03-27T20:21:05.795Z,99386.84
2023-03-27T20:23:55.181Z,99380.21
2023-03-27T20:26:47.639Z,99382.63
2023-03-27T20:29:36.696Z,99378.31
2023-03-27T20:32:25.618Z,99372.61
2023-03-27T20:35:23.561Z,99367.26
2023-03-27T20:38:12.882Z,99363.27
2023-03-27T20:41:10.525Z,99355.14
2023-03-27T20:44:02.481Z,99351.50
2023-03-27T20:46:54.547Z,99352.05
2023-03-27T20:49:43.266Z,99353.59
2023-03-27T20:52:30.544Z,99350.42
2023-03-27T20:55:32.948Z,99348.23
2023-03-27T20:58:28.472Z,99344.70
2023-03-27T21:01:18.827Z,99345.97
2023-03-27T21:04:06.370Z,99325.52
2023-03-27T21:06:54.275Z,99339.40
2023-03-27T21:09:43.607Z,99337.02
2023-03-27T21:12:31.721Z,99329.73
2023-03-27T21:15:18.946Z,99330.20
2023-03-27T21:18:05.321Z,99327.38
2023-03-27T21:20:52.597Z,99323.35
2023-03-27T21:23:39.381Z,99320.89
2023-03-27T21:26:25.667Z,99315.17
2023-03-27T21:29:14.704Z,99311.34
2023-03-27T21:32:01.146Z,99307.38
2023-03-27T21:34:47.896Z,99305.70
2023-03-27T21:37:34.295Z,99301.40
2023-03-27T21:40:20.968Z,99299.81
2023-03-27T21:43:08.448Z,99300.45
2023-03-27T21:45:54.984Z,99300.61
2023-03-27T21:48:44.029Z,99298.34
2023-03-27T21:51:30.470Z,99299.35
2023-03-27T21:54:17.106Z,99296.91
2023-03-27T21:57:04.090Z,99298.92
2023-03-27T21:59:50.246Z,99297.67
2023-03-27T22:02:36.924Z,99300.90
2023-03-27T22:05:24.034Z,99304.14
2023-03-27T22:08:11.894Z,99293.05
2023-03-27T22:11:01.312Z,99290.63
2023-03-27T22:13:48.480Z,99289.92
2023-03-27T22:16:34.874Z,99290.04
2023-03-27T22:19:20.931Z,99285.13
2023-03-27T22:22:07.237Z,99282.33
2023-03-27T22:24:53.445Z,99277.98
2023-03-27T22:27:40.605Z,99274.17
2023-03-27T22:30:27.249Z,99273.27
2023-03-27T22:33:16.317Z,99267.37
2023-03-27T22:36:06.055Z,99274.27
2023-03-27T22:38:53.806Z,99273.94
2023-03-27T22:41:43.955Z,99274.40
2023-03-27T22:44:32.653Z,99276.63
2023-03-27T22:47:19.712Z,99274.03
2023-03-27T22:50:09.535Z,99275.42
2023-03-27T22:52:56.546Z,99277.33
2023-03-27T22:55:51.823Z,99285.88
2023-03-27T22:58:38.453Z,99291.46
2023-03-27T23:01:25.959Z,99294.52
2023-03-27T23:04:12.717Z,99294.55
2023-03-27T23:07:01.959Z,99298.95
2023-03-27T23:09:48.920Z,99300.04
2023-03-27T23:12:35.820Z,99301.43
2023-03-27T23:15:29.765Z,99303.55
2023-03-27T23:18:21.221Z,99306.33
2023-03-27T23:21:10.639Z,99306.39
2023-03-27T23:23:57.437Z,99302.73
2023-03-27T23:26:44.056Z,99304.98
2023-03-27T23:29:31.432Z,99302.96
2023-03-27T23:32:17.856Z,99306.92
2023-03-27T23:35:10.325Z,99302.97
2023-03-27T23:37:56.689Z,99296.83
2023-03-27T23:40:43.148Z,99298.55
2023-03-27T23:43:30.907Z,99297.55
2023-03-27T23:46:17.363Z,99282.14
2023-03-27T23:49:04.273Z,99287.20
2023-03-27T23:51:50.562Z,99283.62
2023-03-27T23:54:36.941Z,99280.46
2023-03-27T23:57:24.954Z,99278.16
